createdAt,value
2017-12-14T00:00:12.581Z,52.74
2017-12-14T00:00:44.525Z,52.86
2017-12-14T00:01:16.167Z,52.92
2017-12-14T00:01:47.810Z,52.99
2017-12-14T00:02:19.694Z,52.90
2017-12-14T00:02:51.326Z,52.94
2017-12-14T00:03:22.980Z,53.07
2017-12-14T00:03:54.612Z,53.13
2017-12-14T00:04:26.242Z,53.24
2017-12-14T00:04:57.870Z,53.22
2017-12-14T00:05:29.608Z,53.34
2017-12-14T00:06:01.248Z,53.24
2017-12-14T00:06:32.893Z,53.36
2017-12-14T00:07:04.535Z,53.34
2017-12-14T00:07:36.207Z,53.45
2017-12-14T00:08:07.834Z,53.49
2017-12-14T00:08:39.467Z,53.54
2017-12-14T00:09:11.107Z,53.61
2017-12-14T00:09:42.744Z,53.63
2017-12-14T00:10:14.406Z,53.51
2017-12-14T00:10:46.034Z,53.56
2017-12-14T00:11:17.670Z,53.56
2017-12-14T00:11:49.303Z,53.72
2017-12-14T00:12:20.974Z,53.77
2017-12-14T00:12:52.602Z,53.72
2017-12-14T00:13:24.238Z,53.85
2017-12-14T00:13:55.878Z,53.78
2017-12-14T00:14:27.521Z,53.77
2017-12-14T00:14:59.163Z,53.80
2017-12-14T00:15:30.805Z,53.91
2017-12-14T00:16:02.447Z,53.84
2017-12-14T00:16:34.089Z,53.82
2017-12-14T00:17:05.731Z,53.79
2017-12-14T00:17:37.403Z,53.99
2017-12-14T00:18:09.031Z,53.93
2017-12-14T00:18:40.662Z,53.99
2017-12-14T00:19:12.299Z,54.01
2017-12-14T00:19:43.940Z,54.00
2017-12-14T00:20:15.585Z,54.10
2017-12-14T00:20:47.224Z,54.15
2017-12-14T00:21:18.865Z,54.31
2017-12-14T00:21:50.530Z,54.34
2017-12-14T00:22:22.159Z,54.36
2017-12-14T00:22:53.790Z,54.43
2017-12-14T00:23:25.676Z,54.39
2017-12-14T00:23:57.351Z,54.39
2017-12-14T00:24:28.518Z,54.31
2017-12-14T00:24:59.687Z,54.44
2017-12-14T00:25:31.315Z,54.55
2017-12-14T00:26:02.951Z,54.59
2017-12-14T00:26:34.573Z,54.64
2017-12-14T00:27:06.319Z,54.68
2017-12-14T00:27:37.990Z,54.76
2017-12-14T00:28:09.609Z,54.69
2017-12-14T00:28:41.461Z,54.74
2017-12-14T00:29:13.090Z,54.73
2017-12-14T00:29:44.829Z,54.77
2017-12-14T00:30:16.656Z,54.73
2017-12-14T00:30:48.287Z,54.68
2017-12-14T00:31:19.918Z,54.68
2017-12-14T00:31:51.551Z,54.78
2017-12-14T00:32:23.184Z,54.78
2017-12-14T00:32:54.811Z,54.78
2017-12-14T00:33:26.438Z,54.76
2017-12-14T00:33:58.272Z,54.66
2017-12-14T00:34:29.913Z,54.72
2017-12-14T00:35:01.555Z,54.74
2017-12-14T00:35:33.198Z,54.74
2017-12-14T00:36:04.837Z,54.64
2017-12-14T00:36:36.481Z,54.65
2017-12-14T00:37:08.122Z,54.70
2017-12-14T00:37:39.765Z,54.60
2017-12-14T00:38:11.434Z,54.67
2017-12-14T00:38:43.066Z,54.78
2017-12-14T00:39:14.698Z,54.78
2017-12-14T00:39:46.333Z,54.75
2017-12-14T00:40:17.974Z,54.79
2017-12-14T00:40:49.617Z,54.87
2017-12-14T00:41:21.286Z,54.89
2017-12-14T00:41:52.914Z,54.86
2017-12-14T00:42:24.603Z,54.85
2017-12-14T00:42:56.234Z,54.91
2017-12-14T00:43:27.899Z,54.83
2017-12-14T00:43:59.533Z,55.00
2017-12-14T00:44:31.339Z,54.75
2017-12-14T00:45:02.967Z,54.90
2017-12-14T00:45:34.701Z,54.99
2017-12-14T00:46:06.342Z,54.53
2017-12-14T00:46:37.985Z,54.48
2017-12-14T00:47:09.856Z,54.42
2017-12-14T00:47:41.478Z,54.45
2017-12-14T00:48:13.245Z,54.35
2017-12-14T00:48:44.878Z,54.27
2017-12-14T00:49:16.505Z,54.36
2017-12-14T00:49:48.147Z,54.45
2017-12-14T00:50:19.797Z,54.52
2017-12-14T00:50:51.427Z,54.55
2017-12-14T00:51:23.070Z,54.50
2017-12-14T00:51:54.711Z,54.56
2017-12-14T00:52:26.352Z,54.70
2017-12-14T00:52:58.014Z,54.64
2017-12-14T00:53:29.686Z,54.70
2017-12-14T00:54:01.326Z,54.71
2017-12-14T00:54:32.950Z,54.71
2017-12-14T00:55:04.579Z,54.81
2017-12-14T00:55:36.512Z,54.83
2017-12-14T00:56:08.460Z,54.86
2017-12-14T00:56:40.102Z,54.85
2017-12-14T00:57:11.745Z,54.82
2017-12-14T00:57:43.383Z,54.92
2017-12-14T00:58:15.029Z,55.01
2017-12-14T00:58:46.694Z,54.97
2017-12-14T00:59:18.317Z,55.00
2017-12-14T00:59:49.962Z,55.13
2017-12-14T01:00:21.902Z,55.09
2017-12-14T01:00:53.570Z,55.13
2017-12-14T01:01:25.199Z,55.23
2017-12-14T01:01:57.063Z,55.27
2017-12-14T01:02:28.690Z,55.25
2017-12-14T01:03:00.420Z,55.29
2017-12-14T01:03:32.064Z,55.38
2017-12-14T01:04:03.702Z,55.47
2017-12-14T01:04:35.344Z,55.50
2017-12-14T01:05:06.970Z,55.48
2017-12-14T01:05:38.633Z,55.48
2017-12-14T01:06:10.270Z,55.64
2017-12-14T01:06:41.917Z,55.73
2017-12-14T01:07:13.747Z,55.61
2017-12-14T01:07:45.377Z,55.84
2017-12-14T01:08:17.010Z,55.84
2017-12-14T01:08:48.644Z,55.92
2017-12-14T01:09:20.278Z,55.71
2017-12-14T01:09:51.902Z,55.96
2017-12-14T01:10:23.526Z,55.96
2017-12-14T01:10:55.355Z,55.75
2017-12-14T01:11:26.997Z,55.95
2017-12-14T01:11:58.641Z,55.95
2017-12-14T01:12:31.513Z,55.92
2017-12-14T01:13:03.151Z,55.92
2017-12-14T01:13:34.793Z,56.06
2017-12-14T01:14:06.435Z,56.04
2017-12-14T01:14:38.198Z,56.13
2017-12-14T01:15:09.826Z,56.14
2017-12-14T01:15:41.669Z,56.08
2017-12-14T01:16:13.369Z,56.00
2017-12-14T01:16:44.966Z,56.04
2017-12-14T01:17:16.603Z,55.97
2017-12-14T01:17:48.543Z,56.03
2017-12-14T01:18:20.184Z,56.06
2017-12-14T01:18:51.826Z,56.25
2017-12-14T01:19:23.775Z,56.21
2017-12-14T01:19:55.455Z,56.31
2017-12-14T01:20:27.082Z,56.40
2017-12-14T01:20:58.710Z,56.47
2017-12-14T01:21:30.579Z,56.34
2017-12-14T01:22:02.206Z,56.46
2017-12-14T01:22:33.842Z,56.49
2017-12-14T01:23:05.575Z,56.60
2017-12-14T01:23:37.218Z,56.65
2017-12-14T01:24:08.856Z,56.75
2017-12-14T01:24:40.502Z,56.87
2017-12-14T01:25:12.166Z,56.64
2017-12-14T01:25:43.798Z,56.88
2017-12-14T01:26:15.666Z,57.14
2017-12-14T01:26:47.290Z,56.95
2017-12-14T01:27:19.019Z,57.05
2017-12-14T01:27:50.661Z,57.37
2017-12-14T01:28:22.299Z,57.35
2017-12-14T01:28:53.948Z,57.20
2017-12-14T01:29:25.584Z,57.20
2017-12-14T01:29:57.277Z,57.28
2017-12-14T01:30:28.898Z,57.40
2017-12-14T01:31:00.518Z,57.51
2017-12-14T01:31:32.375Z,57.43
2017-12-14T01:32:04.006Z,57.45
2017-12-14T01:32:35.745Z,57.36
2017-12-14T01:33:07.415Z,57.40
2017-12-14T01:33:39.041Z,57.37
2017-12-14T01:34:10.818Z,57.28
2017-12-14T01:34:42.449Z,57.26
2017-12-14T01:35:14.074Z,57.38
2017-12-14T01:35:45.920Z,57.21
2017-12-14T01:36:17.598Z,57.19
2017-12-14T01:36:49.230Z,57.12
2017-12-14T01:37:20.850Z,57.09
2017-12-14T01:37:52.478Z,57.17
2017-12-14T01:38:24.304Z,57.20
2017-12-14T01:38:56.062Z,57.10
2017-12-14T01:39:27.709Z,57.19
2017-12-14T01:39:59.652Z,57.21
2017-12-14T01:40:31.295Z,57.11
2017-12-14T01:41:02.958Z,57.34
2017-12-14T01:41:34.631Z,57.17
2017-12-14T01:42:06.262Z,57.21
2017-12-14T01:42:37.882Z,57.25
2017-12-14T01:43:09.510Z,57.21
2017-12-14T01:43:41.151Z,57.31
2017-12-14T01:44:12.794Z,57.28
2017-12-14T01:44:44.428Z,57.40
2017-12-14T01:45:16.073Z,57.38
2017-12-14T01:45:48.022Z,57.36
2017-12-14T01:46:19.662Z,57.40
2017-12-14T01:46:51.318Z,57.37
2017-12-14T01:47:22.954Z,57.40
2017-12-14T01:47:54.827Z,57.35
2017-12-14T01:48:26.454Z,57.35
2017-12-14T01:48:58.083Z,57.35
2017-12-14T01:49:29.762Z,57.62
2017-12-14T01:50:01.387Z,57.50
2017-12-14T01:50:33.010Z,57.55
2017-12-14T01:51:04.746Z,57.47
2017-12-14T01:51:36.389Z,57.40
2017-12-14T01:52:08.031Z,57.39
2017-12-14T01:52:39.863Z,57.40
2017-12-14T01:53:11.622Z,57.51
2017-12-14T01:53:43.263Z,57.39
2017-12-14T01:54:14.905Z,57.55
2017-12-14T01:54:46.574Z,57.47
2017-12-14T01:55:18.206Z,57.40
2017-12-14T01:55:49.839Z,57.57
2017-12-14T01:56:21.503Z,57.46
2017-12-14T01:56:53.131Z,57.77
2017-12-14T01:57:25.064Z,57.71
2017-12-14T01:57:56.898Z,57.75
2017-12-14T01:58:28.655Z,57.79
2017-12-14T01:59:00.286Z,57.82
2017-12-14T01:59:31.939Z,57.84
2017-12-14T02:00:03.614Z,57.83
2017-12-14T02:00:35.247Z,57.79
2017-12-14T02:01:06.878Z,57.92
2017-12-14T02:01:38.518Z,57.78
2017-12-14T02:02:10.386Z,57.80
2017-12-14T02:02:42.005Z,57.75
2017-12-14T02:03:13.739Z,57.89
2017-12-14T02:03:45.381Z,57.71
2017-12-14T02:04:17.024Z,57.66
2017-12-14T02:04:48.665Z,57.64
2017-12-14T02:05:20.338Z,57.60
2017-12-14T02:05:51.958Z,57.56
2017-12-14T02:06:23.904Z,57.64
2017-12-14T02:06:55.818Z,57.75
2017-12-14T02:07:27.442Z,57.86
2017-12-14T02:07:59.073Z,57.70
2017-12-14T02:08:30.697Z,57.67
2017-12-14T02:09:02.350Z,57.64
2017-12-14T02:09:33.978Z,57.55
2017-12-14T02:10:05.602Z,57.62
2017-12-14T02:10:37.272Z,57.45
2017-12-14T02:11:08.903Z,57.62
2017-12-14T02:11:40.526Z,57.57
2017-12-14T02:12:12.266Z,57.57
2017-12-14T02:12:43.934Z,57.64
2017-12-14T02:13:15.554Z,57.52
2017-12-14T02:13:47.189Z,57.47
2017-12-14T02:14:18.834Z,57.38
2017-12-14T02:14:50.476Z,57.42
2017-12-14T02:15:22.118Z,57.43
2017-12-14T02:15:53.760Z,57.42
2017-12-14T02:16:25.402Z,57.45
2017-12-14T02:16:57.043Z,57.36
2017-12-14T02:17:28.711Z,57.54
2017-12-14T02:18:00.338Z,57.36
2017-12-14T02:18:32.276Z,57.42
2017-12-14T02:19:03.903Z,57.34
2017-12-14T02:19:35.533Z,57.36
2017-12-14T02:20:07.162Z,57.43
2017-12-14T02:20:38.844Z,57.39
2017-12-14T02:21:10.485Z,57.36
2017-12-14T02:21:42.125Z,57.44
2017-12-14T02:22:13.772Z,57.49
2017-12-14T02:22:45.438Z,57.55
2017-12-14T02:23:17.058Z,57.55
2017-12-14T02:23:48.688Z,57.62
2017-12-14T02:24:20.337Z,57.64
2017-12-14T02:24:51.978Z,57.58
2017-12-14T02:25:23.649Z,57.61
2017-12-14T02:25:55.273Z,57.41
2017-12-14T02:26:27.212Z,57.44
2017-12-14T02:26:58.851Z,57.46
2017-12-14T02:27:30.493Z,57.40
2017-12-14T02:28:07.965Z,57.53
2017-12-14T02:28:39.595Z,57.61
2017-12-14T02:29:11.222Z,57.49
2017-12-14T02:29:42.850Z,57.54
2017-12-14T02:30:14.485Z,57.54
2017-12-14T02:30:46.115Z,57.47
2017-12-14T02:31:17.747Z,57.49
2017-12-14T02:31:49.374Z,57.57
2017-12-14T02:32:21.002Z,57.75
2017-12-14T02:32:52.626Z,57.53
2017-12-14T02:33:24.251Z,57.66
2017-12-14T02:33:55.885Z,57.51
2017-12-14T02:34:27.519Z,57.57
2017-12-14T02:34:59.146Z,57.58
2017-12-14T02:35:30.816Z,57.59
2017-12-14T02:36:02.470Z,57.66
2017-12-14T02:36:34.102Z,57.63
2017-12-14T02:37:05.732Z,57.46
2017-12-14T02:37:37.367Z,57.42
2017-12-14T02:38:09.006Z,57.53
2017-12-14T02:38:40.635Z,57.54
2017-12-14T02:39:12.262Z,57.58
2017-12-14T02:39:43.942Z,57.63
2017-12-14T02:40:15.579Z,57.68
2017-12-14T02:40:47.210Z,57.57
2017-12-14T02:41:18.832Z,57.67
2017-12-14T02:41:50.463Z,57.60
2017-12-14T02:42:22.087Z,57.62
2017-12-14T02:42:53.715Z,57.56
2017-12-14T02:43:25.346Z,57.61
2017-12-14T02:43:56.970Z,57.55
2017-12-14T02:44:28.602Z,57.58
2017-12-14T02:45:00.271Z,57.58
2017-12-14T02:45:31.904Z,57.57
2017-12-14T02:46:03.535Z,57.55
2017-12-14T02:46:35.171Z,57.60
2017-12-14T02:47:06.799Z,57.55
2017-12-14T02:47:38.472Z,57.59
2017-12-14T02:48:10.103Z,57.54
2017-12-14T02:48:41.734Z,57.66
2017-12-14T02:49:13.363Z,57.63
2017-12-14T02:49:44.995Z,57.62
2017-12-14T02:50:16.639Z,57.58
2017-12-14T02:50:48.270Z,57.58
2017-12-14T02:51:19.901Z,57.62
2017-12-14T02:51:51.530Z,57.65
2017-12-14T02:52:23.158Z,57.60
2017-12-14T02:52:54.842Z,57.67
2017-12-14T02:53:26.475Z,57.79
2017-12-14T02:53:58.102Z,57.73
2017-12-14T02:54:29.726Z,57.76
2017-12-14T02:55:01.355Z,57.68
2017-12-14T02:55:32.983Z,57.64
2017-12-14T02:56:04.615Z,57.73
2017-12-14T02:56:36.243Z,57.75
2017-12-14T02:57:07.870Z,57.77
2017-12-14T02:57:39.503Z,57.74
2017-12-14T02:58:11.133Z,57.68
2017-12-14T02:58:42.769Z,57.75
2017-12-14T02:59:14.402Z,57.77
2017-12-14T02:59:46.030Z,57.76
2017-12-14T03:00:17.662Z,57.75
2017-12-14T03:00:49.295Z,57.76
2017-12-14T03:01:20.928Z,57.91
2017-12-14T03:01:52.587Z,57.85
2017-12-14T03:02:24.222Z,57.90
2017-12-14T03:02:55.878Z,57.81
2017-12-14T03:03:27.550Z,57.96
2017-12-14T03:03:59.178Z,57.89
2017-12-14T03:04:30.802Z,58.00
2017-12-14T03:05:02.430Z,58.06
2017-12-14T03:05:34.054Z,57.89
2017-12-14T03:06:05.681Z,57.89
2017-12-14T03:06:37.312Z,57.88
2017-12-14T03:07:08.938Z,57.93
2017-12-14T03:07:40.565Z,57.93
2017-12-14T03:08:12.190Z,57.99
2017-12-14T03:08:43.862Z,58.07
2017-12-14T03:09:15.486Z,58.14
2017-12-14T03:09:47.115Z,58.13
2017-12-14T03:10:18.747Z,58.05
2017-12-14T03:10:50.374Z,58.01
2017-12-14T03:11:22.002Z,58.01
2017-12-14T03:11:53.634Z,58.00
2017-12-14T03:12:25.307Z,58.05
2017-12-14T03:12:56.934Z,58.08
2017-12-14T03:13:28.563Z,58.17
2017-12-14T03:14:00.198Z,58.11
2017-12-14T03:14:31.826Z,58.11
2017-12-14T03:15:03.458Z,58.32
2017-12-14T03:15:35.090Z,58.37
2017-12-14T03:16:06.713Z,58.41
2017-12-14T03:16:38.378Z,58.50
2017-12-14T03:17:10.014Z,58.57
2017-12-14T03:17:41.641Z,58.45
2017-12-14T03:18:13.302Z,58.33
2017-12-14T03:18:44.934Z,58.62
2017-12-14T03:19:16.562Z,58.50
2017-12-14T03:19:48.185Z,58.45
2017-12-14T03:20:19.809Z,58.46
2017-12-14T03:20:51.482Z,58.47
2017-12-14T03:21:23.102Z,58.62
2017-12-14T03:21:54.775Z,58.77
2017-12-14T03:22:26.410Z,58.70
2017-12-14T03:22:58.034Z,58.60
2017-12-14T03:23:29.662Z,58.63
2017-12-14T03:24:01.282Z,58.63
2017-12-14T03:24:32.913Z,58.53
2017-12-14T03:25:04.542Z,58.55
2017-12-14T03:25:36.170Z,58.49
2017-12-14T03:26:07.802Z,58.64
2017-12-14T03:26:39.434Z,58.55
2017-12-14T03:27:11.102Z,58.56
2017-12-14T03:27:42.735Z,58.53
2017-12-14T03:28:14.406Z,58.52
2017-12-14T03:28:46.030Z,58.44
2017-12-14T03:29:17.663Z,58.60
2017-12-14T03:29:49.298Z,58.45
2017-12-14T03:30:20.932Z,58.37
2017-12-14T03:30:53.587Z,58.37
2017-12-14T03:31:25.215Z,58.46
2017-12-14T03:31:56.849Z,58.29
2017-12-14T03:32:28.473Z,58.36
2017-12-14T03:33:00.130Z,58.22
2017-12-14T03:33:31.766Z,58.16
2017-12-14T03:34:03.394Z,58.12
2017-12-14T03:34:35.027Z,58.12
2017-12-14T03:35:06.660Z,58.11
2017-12-14T03:35:38.286Z,58.09
2017-12-14T03:36:09.916Z,58.01
2017-12-14T03:36:41.542Z,58.09
2017-12-14T03:37:13.393Z,58.14
2017-12-14T03:37:45.018Z,58.12
2017-12-14T03:38:16.640Z,58.03
2017-12-14T03:38:48.271Z,57.92
2017-12-14T03:39:19.903Z,57.88
2017-12-14T03:39:51.531Z,57.99
2017-12-14T03:52:38.782Z,57.61
2017-12-14T03:53:10.411Z,57.65
2017-12-14T03:53:42.039Z,57.53
2017-12-14T03:54:13.671Z,57.51
2017-12-14T03:54:45.298Z,57.49
2017-12-14T03:55:16.978Z,57.49
2017-12-14T03:55:48.607Z,57.52
2017-12-14T03:56:20.235Z,57.54
2017-12-14T03:56:51.867Z,57.54
2017-12-14T03:57:23.495Z,57.60
2017-12-14T03:57:55.127Z,57.67
2017-12-14T03:58:26.759Z,57.54
2017-12-14T03:58:58.386Z,57.47
2017-12-14T03:59:30.015Z,57.54
2017-12-14T04:00:01.643Z,57.52
2017-12-14T04:00:33.335Z,57.66
2017-12-14T04:01:04.971Z,57.72
2017-12-14T04:01:36.594Z,57.75
2017-12-14T04:02:08.218Z,57.72
2017-12-14T04:02:39.838Z,57.73
2017-12-14T04:03:11.466Z,57.76
2017-12-14T04:03:43.090Z,57.70
2017-12-14T04:04:14.722Z,57.82
2017-12-14T04:04:46.346Z,57.79
2017-12-14T04:05:17.974Z,57.79
2017-12-14T04:05:49.674Z,57.74
2017-12-14T04:06:21.304Z,57.82
2017-12-14T04:06:52.935Z,57.78
2017-12-14T04:07:24.563Z,57.75
2017-12-14T04:07:56.186Z,57.82
2017-12-14T04:08:28.395Z,57.80
2017-12-14T04:09:00.027Z,57.81
2017-12-14T04:09:31.654Z,57.80
2017-12-14T04:10:03.286Z,57.93
2017-12-14T04:10:34.906Z,57.84
2017-12-14T04:11:06.550Z,57.87
2017-12-14T04:11:38.182Z,57.82
2017-12-14T04:12:09.802Z,57.96
2017-12-14T04:12:41.438Z,57.91
2017-12-14T04:13:13.067Z,58.07
2017-12-14T04:13:44.694Z,58.00
2017-12-14T04:14:16.329Z,57.97
2017-12-14T04:14:47.959Z,58.06
2017-12-14T04:15:19.634Z,58.14
2017-12-14T04:15:51.268Z,58.02
2017-12-14T04:16:22.899Z,58.04
2017-12-14T04:16:54.530Z,58.14
2017-12-14T04:17:26.210Z,58.25
2017-12-14T04:17:57.842Z,58.29
2017-12-14T04:18:29.470Z,58.25
2017-12-14T04:19:01.110Z,58.17
2017-12-14T04:19:32.743Z,58.42
2017-12-14T04:20:04.370Z,58.23
2017-12-14T04:20:35.999Z,58.22
2017-12-14T04:21:07.623Z,58.25
2017-12-14T04:21:39.246Z,58.21
2017-12-14T04:22:10.878Z,58.21
2017-12-14T04:22:42.559Z,58.15
2017-12-14T04:23:14.195Z,58.21
2017-12-14T04:23:45.830Z,58.19
2017-12-14T04:24:17.458Z,58.24
2017-12-14T04:24:49.094Z,58.25
2017-12-14T04:25:20.723Z,58.25
2017-12-14T04:25:52.359Z,58.15
2017-12-14T04:26:23.986Z,58.17
2017-12-14T04:26:55.609Z,58.25
2017-12-14T04:27:27.234Z,58.27
2017-12-14T04:27:58.898Z,58.25
2017-12-14T04:28:30.526Z,58.24
2017-12-14T04:29:02.155Z,58.26
2017-12-14T04:29:33.782Z,58.27
2017-12-14T04:30:05.406Z,58.33
2017-12-14T04:30:37.030Z,58.34
2017-12-14T04:31:08.662Z,58.38
2017-12-14T04:31:40.331Z,58.42
2017-12-14T04:32:11.958Z,58.50
2017-12-14T04:32:43.586Z,58.38
2017-12-14T04:33:15.215Z,58.34
2017-12-14T04:33:46.838Z,58.33
2017-12-14T04:34:18.538Z,58.32
2017-12-14T04:34:50.166Z,58.40
2017-12-14T04:35:21.799Z,58.38
2017-12-14T04:35:53.427Z,58.46
2017-12-14T04:36:25.058Z,58.50
2017-12-14T04:36:56.678Z,58.57
2017-12-14T04:37:28.306Z,58.47
2017-12-14T04:37:59.941Z,58.45
2017-12-14T04:38:31.578Z,58.47
2017-12-14T04:39:03.263Z,58.38
2017-12-14T04:39:34.887Z,58.42
2017-12-14T04:40:06.558Z,58.50
2017-12-14T04:40:38.190Z,58.54
2017-12-14T04:41:09.817Z,58.50
2017-12-14T04:41:41.442Z,58.47
2017-12-14T04:42:13.075Z,58.47
2017-12-14T04:42:44.707Z,58.54
2017-12-14T04:43:16.335Z,58.54
2017-12-14T04:43:47.963Z,58.47
2017-12-14T04:44:19.599Z,58.53
2017-12-14T04:44:51.226Z,58.50
2017-12-14T04:45:22.854Z,58.68
2017-12-14T04:45:54.542Z,58.70
2017-12-14T04:46:26.170Z,58.56
2017-12-14T04:46:57.799Z,58.66
2017-12-14T04:47:29.427Z,58.59
2017-12-14T04:48:01.056Z,58.62
2017-12-14T04:48:32.681Z,58.64
2017-12-14T04:49:04.306Z,58.58
2017-12-14T04:49:35.934Z,58.60
2017-12-14T04:50:07.561Z,58.59
2017-12-14T04:50:39.181Z,58.53
2017-12-14T04:51:10.854Z,58.51
2017-12-14T04:51:42.494Z,58.48
2017-12-14T04:52:14.122Z,58.47
2017-12-14T04:52:45.751Z,58.41
2017-12-14T04:53:17.378Z,58.45
2017-12-14T04:53:49.012Z,58.62
2017-12-14T04:54:20.635Z,58.69
2017-12-14T04:54:52.266Z,58.74
2017-12-14T04:55:23.894Z,58.72
2017-12-14T04:55:55.522Z,58.67
2017-12-14T04:56:27.199Z,58.68
2017-12-14T04:56:58.822Z,58.80
2017-12-14T04:57:30.451Z,58.78
2017-12-14T04:58:02.074Z,58.78
2017-12-14T04:58:33.702Z,58.77
2017-12-14T04:59:05.331Z,58.68
2017-12-14T04:59:36.959Z,58.77
2017-12-14T05:00:08.602Z,58.65
2017-12-14T05:00:40.227Z,58.65
2017-12-14T05:01:11.855Z,58.64
2017-12-14T05:01:43.526Z,58.64
2017-12-14T05:02:15.153Z,58.58
2017-12-14T05:02:46.778Z,58.53
2017-12-14T05:03:18.410Z,58.53
2017-12-14T05:03:50.040Z,58.49
2017-12-14T05:04:21.675Z,58.45
2017-12-14T05:04:53.298Z,58.41
2017-12-14T05:05:24.932Z,58.39
2017-12-14T05:05:56.607Z,58.35
2017-12-14T05:06:28.270Z,58.35
2017-12-14T05:06:59.902Z,58.34
2017-12-14T05:07:31.534Z,58.45
2017-12-14T05:08:03.154Z,58.37
2017-12-14T05:08:34.778Z,58.42
2017-12-14T05:09:06.442Z,58.38
2017-12-14T05:09:38.070Z,58.35
2017-12-14T05:10:09.698Z,58.31
2017-12-14T05:10:41.369Z,58.31
2017-12-14T05:11:13.003Z,58.27
2017-12-14T05:11:44.630Z,58.26
2017-12-14T05:12:16.249Z,58.27
2017-12-14T05:12:47.877Z,58.32
2017-12-14T05:13:19.517Z,58.37
2017-12-14T05:13:51.145Z,58.30
2017-12-14T05:14:22.775Z,58.26
2017-12-14T05:14:54.450Z,58.19
2017-12-14T05:15:26.078Z,58.18
2017-12-14T05:15:57.709Z,58.12
2017-12-14T05:16:29.330Z,57.98
2017-12-14T05:17:00.958Z,58.02
2017-12-14T05:17:32.583Z,57.90
2017-12-14T05:18:04.210Z,57.88
2017-12-14T05:18:35.881Z,57.96
2017-12-14T05:19:07.538Z,57.99
2017-12-14T05:19:39.166Z,58.04
2017-12-14T05:20:10.834Z,58.07
2017-12-14T05:20:42.458Z,58.09
2017-12-14T05:21:14.137Z,57.95
2017-12-14T05:21:45.761Z,57.95
2017-12-14T05:22:17.386Z,57.95
2017-12-14T05:22:49.019Z,57.85
2017-12-14T05:23:20.651Z,57.97
2017-12-14T05:23:52.282Z,57.97
2017-12-14T05:24:23.912Z,57.97
2017-12-14T05:24:55.534Z,57.95
2017-12-14T05:25:27.205Z,57.89
2017-12-14T05:25:58.834Z,57.93
2017-12-14T05:26:30.462Z,57.84
2017-12-14T05:27:02.094Z,57.90
2017-12-14T05:27:33.762Z,57.92
2017-12-14T05:28:05.397Z,57.88
2017-12-14T05:28:37.026Z,57.87
2017-12-14T05:29:08.654Z,57.90
2017-12-14T05:29:40.323Z,57.94
2017-12-14T05:30:11.959Z,58.00
2017-12-14T05:30:43.590Z,57.97
2017-12-14T05:31:15.222Z,58.25
2017-12-14T05:31:46.851Z,58.35
2017-12-14T05:32:18.483Z,58.46
2017-12-14T05:32:50.122Z,58.50
2017-12-14T05:33:21.747Z,58.52
2017-12-14T05:33:53.375Z,58.70
2017-12-14T05:34:25.062Z,58.56
2017-12-14T05:34:56.690Z,58.76
2017-12-14T05:35:28.323Z,58.57
2017-12-14T05:35:59.952Z,58.56
2017-12-14T05:36:31.574Z,58.68
2017-12-14T05:37:03.198Z,58.78
2017-12-14T05:37:34.827Z,58.73
2017-12-14T05:38:06.455Z,58.74
2017-12-14T05:38:38.087Z,58.73
2017-12-14T05:39:09.718Z,58.82
2017-12-14T05:39:41.347Z,58.86
2017-12-14T05:40:12.973Z,58.72
2017-12-14T05:40:44.598Z,58.72
2017-12-14T05:41:16.227Z,58.76
2017-12-14T05:41:47.854Z,58.68
2017-12-14T05:42:19.478Z,58.71
2017-12-14T05:42:51.102Z,58.61
2017-12-14T05:43:22.735Z,58.66
2017-12-14T05:43:54.413Z,58.73
2017-12-14T05:44:26.037Z,58.67
2017-12-14T05:44:57.660Z,58.61
2017-12-14T05:45:29.335Z,58.63
2017-12-14T05:46:00.968Z,58.58
2017-12-14T05:46:32.602Z,58.62
2017-12-14T05:47:04.227Z,58.63
2017-12-14T05:47:35.854Z,58.56
2017-12-14T05:48:07.486Z,58.66
2017-12-14T05:48:39.118Z,58.72
2017-12-14T05:49:10.743Z,58.64
2017-12-14T05:49:42.370Z,58.71
2017-12-14T05:50:13.994Z,58.66
2017-12-14T05:50:45.667Z,58.75
2017-12-14T05:51:17.299Z,58.67
2017-12-14T05:51:48.933Z,58.77
2017-12-14T05:52:20.564Z,58.77
2017-12-14T05:52:52.186Z,58.64
2017-12-14T05:53:23.815Z,58.81
2017-12-14T05:53:55.439Z,58.74
2017-12-14T05:54:27.066Z,58.85
2017-12-14T05:54:58.690Z,58.80
2017-12-14T05:55:30.313Z,58.76
2017-12-14T05:56:01.986Z,58.79
2017-12-14T05:56:33.610Z,58.81
2017-12-14T05:57:05.239Z,58.73
2017-12-14T05:57:36.911Z,58.80
2017-12-14T05:58:08.542Z,58.79
2017-12-14T05:58:40.175Z,58.76
2017-12-14T05:59:11.802Z,58.92
2017-12-14T05:59:43.433Z,58.96
2017-12-14T06:00:15.061Z,58.93
2017-12-14T06:00:46.690Z,58.94
2017-12-14T06:01:18.365Z,58.92
2017-12-14T06:01:49.996Z,58.98
2017-12-14T06:02:21.624Z,58.94
2017-12-14T06:02:53.255Z,58.94
2017-12-14T06:03:24.886Z,58.93
2017-12-14T06:03:56.518Z,58.94
2017-12-14T06:04:28.150Z,58.87
2017-12-14T06:04:59.783Z,58.79
2017-12-14T06:05:31.413Z,58.94
2017-12-14T06:06:03.085Z,59.00
2017-12-14T06:06:34.714Z,59.02
2017-12-14T06:07:06.351Z,58.96
2017-12-14T06:07:38.032Z,59.01
2017-12-14T06:08:09.717Z,59.08
2017-12-14T06:08:41.347Z,59.06
2017-12-14T06:09:12.981Z,58.95
2017-12-14T06:09:44.618Z,58.92
2017-12-14T06:10:16.246Z,59.02
2017-12-14T06:10:47.879Z,58.95
2017-12-14T06:11:19.515Z,58.98
2017-12-14T06:11:51.146Z,58.92
2017-12-14T06:12:22.778Z,59.06
2017-12-14T06:12:54.455Z,59.04
2017-12-14T06:13:26.091Z,59.03
2017-12-14T06:13:57.721Z,59.15
2017-12-14T06:14:29.351Z,59.20
2017-12-14T06:15:01.025Z,59.40
2017-12-14T06:15:32.642Z,59.10
2017-12-14T06:16:04.275Z,59.19
2017-12-14T06:16:35.904Z,59.41
2017-12-14T06:17:07.534Z,59.27
2017-12-14T06:17:39.167Z,59.29
2017-12-14T06:18:10.934Z,59.49
2017-12-14T06:18:42.563Z,59.19
2017-12-14T06:19:14.190Z,59.25
2017-12-14T06:19:45.810Z,59.70
2017-12-14T06:20:17.854Z,59.74
2017-12-14T06:20:49.478Z,59.37
2017-12-14T06:21:21.106Z,59.39
2017-12-14T06:21:52.730Z,59.26
2017-12-14T06:22:24.365Z,59.61
2017-12-14T06:22:55.990Z,59.50
2017-12-14T06:23:27.658Z,59.30
2017-12-14T06:23:59.288Z,59.24
2017-12-14T06:24:30.920Z,59.19
2017-12-14T06:25:02.551Z,59.14
2017-12-14T06:25:34.174Z,59.09
2017-12-14T06:26:05.819Z,58.90
2017-12-14T06:26:37.442Z,58.99
2017-12-14T06:27:09.070Z,59.20
2017-12-14T06:27:40.699Z,59.07
2017-12-14T06:28:12.326Z,59.07
2017-12-14T06:28:43.950Z,59.09
2017-12-14T06:29:15.570Z,59.06
2017-12-14T06:29:47.198Z,59.05
2017-12-14T06:30:18.826Z,59.03
2017-12-14T06:30:50.454Z,59.06
2017-12-14T06:31:22.079Z,59.04
2017-12-14T06:31:53.746Z,59.00
2017-12-14T06:32:25.378Z,58.99
2017-12-14T06:32:57.006Z,58.95
2017-12-14T06:33:28.686Z,58.92
2017-12-14T06:34:00.314Z,58.94
2017-12-14T06:34:31.946Z,58.98
2017-12-14T06:35:03.578Z,58.95
2017-12-14T06:35:35.207Z,58.90
2017-12-14T06:36:06.835Z,59.05
2017-12-14T06:36:38.459Z,59.02
2017-12-14T06:37:10.086Z,59.08
2017-12-14T06:37:41.719Z,59.00
2017-12-14T06:38:13.350Z,59.00
2017-12-14T06:38:45.029Z,58.95
2017-12-14T06:39:16.655Z,58.91
2017-12-14T06:39:48.281Z,58.91
2017-12-14T06:40:19.910Z,58.84
2017-12-14T06:40:51.538Z,58.87
2017-12-14T06:41:23.166Z,58.82
2017-12-14T06:41:54.791Z,58.80
2017-12-14T06:42:26.424Z,58.78
2017-12-14T06:42:58.058Z,58.79
2017-12-14T06:43:29.682Z,58.74
2017-12-14T06:44:01.306Z,58.79
2017-12-14T06:44:32.982Z,58.78
2017-12-14T06:45:04.610Z,58.65
2017-12-14T06:45:36.243Z,58.68
2017-12-14T06:46:07.875Z,58.62
2017-12-14T06:46:39.503Z,58.63
2017-12-14T06:47:11.138Z,58.55
2017-12-14T06:47:42.766Z,58.50
2017-12-14T06:48:14.394Z,58.52
2017-12-14T06:48:46.023Z,58.52
2017-12-14T06:49:17.662Z,58.52
2017-12-14T06:49:49.362Z,58.49
2017-12-14T06:50:20.990Z,58.45
2017-12-14T06:50:52.654Z,58.42
2017-12-14T06:51:24.284Z,58.45
2017-12-14T06:51:55.951Z,58.47
2017-12-14T06:52:27.582Z,58.34
2017-12-14T06:52:59.211Z,58.32
2017-12-14T06:53:30.871Z,58.36
2017-12-14T06:54:02.498Z,58.33
2017-12-14T06:54:34.130Z,58.29
2017-12-14T06:55:05.799Z,58.32
2017-12-14T06:55:37.430Z,58.34
2017-12-14T06:56:09.054Z,58.38
2017-12-14T06:56:40.691Z,58.48
2017-12-14T06:57:12.327Z,58.38
2017-12-14T06:57:44.015Z,58.38
2017-12-14T06:58:15.671Z,58.38
2017-12-14T06:58:47.302Z,58.41
2017-12-14T06:59:18.930Z,58.56
2017-12-14T06:59:50.562Z,58.62